sensor_id;sensor_type;location;lat;lon;timestamp;P1;durP1;ratioP1;P2;durP2;ratioP2
44728;SDS011;30457;53.590;9.922;2023-04-23T00:01:30;3.80;;;3.05;;
44728;SDS011;30457;53.590;9.922;2023-04-23T00:05:59;3.63;;;3.28;;
44728;SDS011;30457;53.590;9.922;2023-04-23T00:10:30;3.10;;;2.80;;
44728;SDS011;30457;53.590;9.922;2023-04-23T00:14:56;4.38;;;3.97;;
44728;SDS011;30457;53.590;9.922;2023-04-23T00:19:22;5.57;;;3.25;;
44728;SDS011;30457;53.590;9.922;2023-04-23T00:23:48;4.53;;;3.55;;
44728;SDS011;30457;53.590;9.922;2023-04-23T00:28:13;7.05;;;3.15;;
44728;SDS011;30457;53.590;9.922;2023-04-23T00:32:40;5.68;;;3.63;;
44728;SDS011;30457;53.590;9.922;2023-04-23T00:37:05;4.15;;;3.80;;
44728;SDS011;30457;53.590;9.922;2023-04-23T00:41:32;8.02;;;4.53;;
44728;SDS011;30457;53.590;9.922;2023-04-23T00:45:58;4.97;;;3.80;;
44728;SDS011;30457;53.590;9.922;2023-04-23T00:50:24;5.88;;;4.47;;
44728;SDS011;30457;53.590;9.922;2023-04-23T00:54:50;4.90;;;3.92;;
44728;SDS011;30457;53.590;9.922;2023-04-23T00:59:15;4.35;;;3.95;;
44728;SDS011;30457;53.590;9.922;2023-04-23T01:03:41;6.38;;;3.88;;
44728;SDS011;30457;53.590;9.922;2023-04-23T01:08:07;7.22;;;4.63;;
44728;SDS011;30457;53.590;9.922;2023-04-23T01:12:38;7.40;;;4.45;;
44728;SDS011;30457;53.590;9.922;2023-04-23T01:17:04;6.40;;;4.88;;
44728;SDS011;30457;53.590;9.922;2023-04-23T01:21:29;5.88;;;4.72;;
44728;SDS011;30457;53.590;9.922;2023-04-23T01:25:56;6.88;;;4.65;;
44728;SDS011;30457;53.590;9.922;2023-04-23T01:30:24;5.22;;;4.40;;
44728;SDS011;30457;53.590;9.922;2023-04-23T01:34:51;9.55;;;4.78;;
44728;SDS011;30457;53.590;9.922;2023-04-23T01:39:18;8.68;;;5.38;;
44728;SDS011;30457;53.590;9.922;2023-04-23T01:48:53;6.43;;;4.70;;
44728;SDS011;30457;53.590;9.922;2023-04-23T01:53:19;7.50;;;5.88;;
44728;SDS011;30457;53.590;9.922;2023-04-23T01:57:45;13.35;;;10.00;;
44728;SDS011;30457;53.590;9.922;2023-04-23T02:02:11;12.55;;;10.13;;
44728;SDS011;30457;53.590;9.922;2023-04-23T02:06:38;15.98;;;11.63;;
44728;SDS011;30457;53.590;9.922;2023-04-23T02:11:04;16.92;;;12.07;;
44728;SDS011;30457;53.590;9.922;2023-04-23T02:15:30;17.75;;;11.80;;
44728;SDS011;30457;53.590;9.922;2023-04-23T02:19:58;15.55;;;11.27;;
44728;SDS011;30457;53.590;9.922;2023-04-23T02:24:23;15.88;;;11.18;;
44728;SDS011;30457;53.590;9.922;2023-04-23T02:28:49;25.27;;;12.00;;
44728;SDS011;30457;53.590;9.922;2023-04-23T02:33:15;15.63;;;10.32;;
44728;SDS011;30457;53.590;9.922;2023-04-23T02:37:41;18.48;;;12.73;;
44728;SDS011;30457;53.590;9.922;2023-04-23T02:42:07;18.95;;;12.57;;
44728;SDS011;30457;53.590;9.922;2023-04-23T02:46:33;19.67;;;11.60;;
44728;SDS011;30457;53.590;9.922;2023-04-23T02:51:00;18.00;;;11.77;;
44728;SDS011;30457;53.590;9.922;2023-04-23T02:55:27;16.80;;;10.68;;
44728;SDS011;30457;53.590;9.922;2023-04-23T02:59:56;18.83;;;11.65;;
44728;SDS011;30457;53.590;9.922;2023-04-23T03:04:31;12.40;;;9.05;;
44728;SDS011;30457;53.590;9.922;2023-04-23T03:08:57;13.65;;;9.00;;
44728;SDS011;30457;53.590;9.922;2023-04-23T03:13:23;11.23;;;7.85;;
44728;SDS011;30457;53.590;9.922;2023-04-23T03:17:49;12.13;;;7.18;;
44728;SDS011;30457;53.590;9.922;2023-04-23T03:22:16;17.13;;;7.35;;
44728;SDS011;30457;53.590;9.922;2023-04-23T03:26:41;9.00;;;6.15;;
44728;SDS011;30457;53.590;9.922;2023-04-23T03:31:07;8.88;;;6.63;;
44728;SDS011;30457;53.590;9.922;2023-04-23T03:35:33;10.70;;;6.75;;
44728;SDS011;30457;53.590;9.922;2023-04-23T03:40:01;9.18;;;5.78;;
44728;SDS011;30457;53.590;9.922;2023-04-23T03:44:32;8.60;;;5.43;;
44728;SDS011;30457;53.590;9.922;2023-04-23T03:48:58;10.02;;;5.28;;
44728;SDS011;30457;53.590;9.922;2023-04-23T03:53:25;6.07;;;5.25;;
44728;SDS011;30457;53.590;9.922;2023-04-23T03:58:11;9.20;;;5.65;;
44728;SDS011;30457;53.590;9.922;2023-04-23T04:02:42;10.27;;;5.78;;
44728;SDS011;30457;53.590;9.922;2023-04-23T04:07:08;8.70;;;5.63;;
44728;SDS011;30457;53.590;9.922;2023-04-23T04:11:36;8.68;;;5.25;;
44728;SDS011;30457;53.590;9.922;2023-04-23T04:16:07;10.57;;;5.47;;
44728;SDS011;30457;53.590;9.922;2023-04-23T04:20:33;10.95;;;5.72;;
44728;SDS011;30457;53.590;9.922;2023-04-23T04:24:58;7.20;;;5.50;;
44728;SDS011;30457;53.590;9.922;2023-04-23T04:29:24;7.07;;;4.97;;
44728;SDS011;30457;53.590;9.922;2023-04-23T04:33:50;5.70;;;4.88;;
44728;SDS011;30457;53.590;9.922;2023-04-23T04:38:16;5.30;;;4.75;;
44728;SDS011;30457;53.590;9.922;2023-04-23T04:42:42;6.57;;;4.50;;
44728;SDS011;30457;53.590;9.922;2023-04-23T04:47:08;6.40;;;4.22;;
44728;SDS011;30457;53.590;9.922;2023-04-23T04:51:34;6.68;;;4.93;;
44728;SDS011;30457;53.590;9.922;2023-04-23T04:56:00;7.38;;;4.50;;
44728;SDS011;30457;53.590;9.922;2023-04-23T05:00:27;6.05;;;4.70;;
44728;SDS011;30457;53.590;9.922;2023-04-23T05:04:53;4.97;;;4.00;;
44728;SDS011;30457;53.590;9.922;2023-04-23T05:09:19;5.63;;;4.10;;
44728;SDS011;30457;53.590;9.922;2023-04-23T05:13:45;5.95;;;3.50;;
44728;SDS011;30457;53.590;9.922;2023-04-23T05:18:11;6.43;;;3.83;;
44728;SDS011;30457;53.590;9.922;2023-04-23T05:22:37;7.88;;;4.25;;
44728;SDS011;30457;53.590;9.922;2023-04-23T05:27:04;7.88;;;5.13;;
44728;SDS011;30457;53.590;9.922;2023-04-23T05:31:30;6.25;;;4.50;;
44728;SDS011;30457;53.590;9.922;2023-04-23T05:35:56;6.93;;;4.93;;
44728;SDS011;30457;53.590;9.922;2023-04-23T05:40:21;6.95;;;4.20;;
44728;SDS011;30457;53.590;9.922;2023-04-23T05:44:47;5.80;;;4.72;;
44728;SDS011;30457;53.590;9.922;2023-04-23T05:49:13;4.50;;;4.00;;
44728;SDS011;30457;53.590;9.922;2023-04-23T05:53:38;6.28;;;4.43;;
44728;SDS011;30457;53.590;9.922;2023-04-23T05:58:04;5.18;;;3.20;;
44728;SDS011;30457;53.590;9.922;2023-04-23T06:02:30;3.60;;;3.30;;
44728;SDS011;30457;53.590;9.922;2023-04-23T06:06:57;5.63;;;3.58;;
44728;SDS011;30457;53.590;9.922;2023-04-23T06:11:23;5.15;;;3.47;;
44728;SDS011;30457;53.590;9.922;2023-04-23T06:15:49;4.55;;;3.60;;
44728;SDS011;30457;53.590;9.922;2023-04-23T06:20:14;4.13;;;3.15;;
44728;SDS011;30457;53.590;9.922;2023-04-23T06:24:40;4.93;;;3.25;;
44728;SDS011;30457;53.590;9.922;2023-04-23T06:29:05;6.15;;;3.10;;
44728;SDS011;30457;53.590;9.922;2023-04-23T06:33:36;3.40;;;2.72;;
44728;SDS011;30457;53.590;9.922;2023-04-23T06:38:01;4.50;;;2.72;;
44728;SDS011;30457;53.590;9.922;2023-04-23T06:42:27;5.53;;;3.03;;
44728;SDS011;30457;53.590;9.922;2023-04-23T06:47:25;4.45;;;3.20;;
44728;SDS011;30457;53.590;9.922;2023-04-23T06:51:51;4.80;;;2.80;;
44728;SDS011;30457;53.590;9.922;2023-04-23T06:56:16;3.95;;;2.20;;
44728;SDS011;30457;53.590;9.922;2023-04-23T07:00:42;4.55;;;3.03;;
44728;SDS011;30457;53.590;9.922;2023-04-23T07:05:08;5.00;;;3.17;;
44728;SDS011;30457;53.590;9.922;2023-04-23T07:09:34;5.30;;;3.30;;
44728;SDS011;30457;53.590;9.922;2023-04-23T07:14:00;5.10;;;3.30;;
44728;SDS011;30457;53.590;9.922;2023-04-23T07:18:25;6.82;;;3.60;;
44728;SDS011;30457;53.590;9.922;2023-04-23T07:22:51;5.00;;;3.90;;
44728;SDS011;30457;53.590;9.922;2023-04-23T07:27:17;5.60;;;3.30;;
44728;SDS011;30457;53.590;9.922;2023-04-23T07:31:43;5.85;;;3.20;;
44728;SDS011;30457;53.590;9.922;2023-04-23T07:36:08;3.70;;;2.88;;
44728;SDS011;30457;53.590;9.922;2023-04-23T07:40:34;3.65;;;3.28;;
44728;SDS011;30457;53.590;9.922;2023-04-23T07:45:00;5.22;;;3.67;;
44728;SDS011;30457;53.590;9.922;2023-04-23T07:49:26;3.90;;;3.05;;
44728;SDS011;30457;53.590;9.922;2023-04-23T07:53:52;3.65;;;3.20;;
44728;SDS011;30457;53.590;9.922;2023-04-23T07:58:18;5.13;;;3.55;;
44728;SDS011;30457;53.590;9.922;2023-04-23T08:02:44;3.35;;;2.65;;
44728;SDS011;30457;53.590;9.922;2023-04-23T08:07:10;5.90;;;3.33;;
44728;SDS011;30457;53.590;9.922;2023-04-23T08:11:37;3.97;;;3.13;;
44728;SDS011;30457;53.590;9.922;2023-04-23T08:16:02;8.00;;;3.08;;
44728;SDS011;30457;53.590;9.922;2023-04-23T08:20:28;5.15;;;3.03;;
44728;SDS011;30457;53.590;9.922;2023-04-23T08:24:53;4.00;;;2.90;;
44728;SDS011;30457;53.590;9.922;2023-04-23T08:29:19;4.35;;;3.22;;
44728;SDS011;30457;53.590;9.922;2023-04-23T08:33:44;4.78;;;3.08;;
44728;SDS011;30457;53.590;9.922;2023-04-23T08:38:10;3.45;;;3.00;;
44728;SDS011;30457;53.590;9.922;2023-04-23T08:42:37;4.95;;;3.38;;
44728;SDS011;30457;53.590;9.922;2023-04-23T08:47:21;4.15;;;3.10;;
44728;SDS011;30457;53.590;9.922;2023-04-23T08:51:51;4.40;;;3.03;;
44728;SDS011;30457;53.590;9.922;2023-04-23T08:56:17;3.95;;;3.40;;
44728;SDS011;30457;53.590;9.922;2023-04-23T09:00:45;3.55;;;3.10;;
44728;SDS011;30457;53.590;9.922;2023-04-23T09:05:13;5.35;;;3.75;;
44728;SDS011;30457;53.590;9.922;2023-04-23T09:09:39;3.97;;;3.20;;
44728;SDS011;30457;53.590;9.922;2023-04-23T09:14:05;4.15;;;3.47;;
44728;SDS011;30457;53.590;9.922;2023-04-23T09:18:30;4.45;;;3.50;;
44728;SDS011;30457;53.590;9.922;2023-04-23T09:22:56;4.55;;;3.50;;
44728;SDS011;30457;53.590;9.922;2023-04-23T09:27:23;6.45;;;3.50;;
44728;SDS011;30457;53.590;9.922;2023-04-23T09:31:51;4.75;;;3.63;;
44728;SDS011;30457;53.590;9.922;2023-04-23T09:36:19;5.15;;;3.70;;
44728;SDS011;30457;53.590;9.922;2023-04-23T09:40:46;6.95;;;4.25;;
44728;SDS011;30457;53.590;9.922;2023-04-23T09:45:14;5.00;;;4.20;;
44728;SDS011;30457;53.590;9.922;2023-04-23T09:49:44;5.88;;;4.40;;
44728;SDS011;30457;53.590;9.922;2023-04-23T09:54:14;5.85;;;3.97;;
44728;SDS011;30457;53.590;9.922;2023-04-23T09:58:47;10.93;;;5.28;;
44728;SDS011;30457;53.590;9.922;2023-04-23T10:03:12;5.88;;;4.68;;
44728;SDS011;30457;53.590;9.922;2023-04-23T10:07:38;5.78;;;4.90;;
44728;SDS011;30457;53.590;9.922;2023-04-23T10:12:04;5.32;;;4.15;;
44728;SDS011;30457;53.590;9.922;2023-04-23T10:16:30;6.50;;;4.60;;
44728;SDS011;30457;53.590;9.922;2023-04-23T10:20:56;6.47;;;5.15;;
44728;SDS011;30457;53.590;9.922;2023-04-23T10:25:22;6.75;;;5.13;;
44728;SDS011;30457;53.590;9.922;2023-04-23T10:29:49;6.80;;;5.28;;
44728;SDS011;30457;53.590;9.922;2023-04-23T10:34:15;9.68;;;5.45;;
44728;SDS011;30457;53.590;9.922;2023-04-23T10:38:41;147.52;;;92.18;;
44728;SDS011;30457;53.590;9.922;2023-04-23T10:43:09;175.60;;;131.32;;
44728;SDS011;30457;53.590;9.922;2023-04-23T10:47:34;88.38;;;66.65;;
44728;SDS011;30457;53.590;9.922;2023-04-23T10:52:02;43.72;;;33.20;;
44728;SDS011;30457;53.590;9.922;2023-04-23T10:56:32;104.07;;;91.65;;
44728;SDS011;30457;53.590;9.922;2023-04-23T11:00:57;33.33;;;29.77;;
44728;SDS011;30457;53.590;9.922;2023-04-23T11:05:29;12.70;;;11.07;;
44728;SDS011;30457;53.590;9.922;2023-04-23T11:09:59;13.50;;;10.05;;
44728;SDS011;30457;53.590;9.922;2023-04-23T11:14:36;9.38;;;7.63;;
44728;SDS011;30457;53.590;9.922;2023-04-23T11:19:09;9.07;;;6.90;;
44728;SDS011;30457;53.590;9.922;2023-04-23T11:23:36;8.68;;;6.47;;
44728;SDS011;30457;53.590;9.922;2023-04-23T11:28:02;8.15;;;6.47;;
44728;SDS011;30457;53.590;9.922;2023-04-23T11:32:31;6.68;;;5.43;;
44728;SDS011;30457;53.590;9.922;2023-04-23T11:36:57;7.22;;;5.03;;
44728;SDS011;30457;53.590;9.922;2023-04-23T11:41:23;6.40;;;4.97;;
44728;SDS011;30457;53.590;9.922;2023-04-23T11:45:49;6.55;;;4.88;;
44728;SDS011;30457;53.590;9.922;2023-04-23T11:50:21;6.30;;;4.70;;
44728;SDS011;30457;53.590;9.922;2023-04-23T11:54:47;6.78;;;4.47;;
44728;SDS011;30457;53.590;9.922;2023-04-23T11:59:12;6.13;;;5.05;;
44728;SDS011;30457;53.590;9.922;2023-04-23T12:03:38;5.05;;;3.65;;
44728;SDS011;30457;53.590;9.922;2023-04-23T12:08:07;4.57;;;3.90;;
44728;SDS011;30457;53.590;9.922;2023-04-23T12:12:34;4.30;;;3.90;;
44728;SDS011;30457;53.590;9.922;2023-04-23T12:17:07;7.63;;;3.78;;
44728;SDS011;30457;53.590;9.922;2023-04-23T12:21:34;15.18;;;4.15;;
44728;SDS011;30457;53.590;9.922;2023-04-23T12:26:11;9.02;;;3.60;;
44728;SDS011;30457;53.590;9.922;2023-04-23T12:30:41;3.47;;;2.80;;
44728;SDS011;30457;53.590;9.922;2023-04-23T12:35:08;4.82;;;3.20;;
44728;SDS011;30457;53.590;9.922;2023-04-23T12:39:35;3.95;;;3.15;;
44728;SDS011;30457;53.590;9.922;2023-04-23T12:44:00;4.15;;;3.15;;
44728;SDS011;30457;53.590;9.922;2023-04-23T12:48:26;2.80;;;2.60;;
44728;SDS011;30457;53.590;9.922;2023-04-23T12:52:51;3.20;;;2.88;;
44728;SDS011;30457;53.590;9.922;2023-04-23T12:57:17;2.88;;;2.40;;
44728;SDS011;30457;53.590;9.922;2023-04-23T13:01:47;5.53;;;2.70;;
44728;SDS011;30457;53.590;9.922;2023-04-23T13:06:12;3.95;;;2.95;;
44728;SDS011;30457;53.590;9.922;2023-04-23T13:10:38;2.65;;;2.45;;
44728;SDS011;30457;53.590;9.922;2023-04-23T13:15:04;4.30;;;2.97;;
44728;SDS011;30457;53.590;9.922;2023-04-23T13:19:30;4.07;;;2.70;;
44728;SDS011;30457;53.590;9.922;2023-04-23T13:23:56;2.03;;;1.83;;
44728;SDS011;30457;53.590;9.922;2023-04-23T13:28:21;4.45;;;2.67;;
44728;SDS011;30457;53.590;9.922;2023-04-23T13:32:47;2.50;;;2.30;;
44728;SDS011;30457;53.590;9.922;2023-04-23T13:37:12;5.43;;;4.93;;
44728;SDS011;30457;53.590;9.922;2023-04-23T13:41:41;2.65;;;2.30;;
44728;SDS011;30457;53.590;9.922;2023-04-23T13:46:06;2.35;;;2.00;;
44728;SDS011;30457;53.590;9.922;2023-04-23T13:50:33;2.42;;;1.92;;
44728;SDS011;30457;53.590;9.922;2023-04-23T13:54:59;2.95;;;2.13;;
44728;SDS011;30457;53.590;9.922;2023-04-23T13:59:26;2.45;;;1.90;;
44728;SDS011;30457;53.590;9.922;2023-04-23T14:03:52;3.38;;;1.80;;
44728;SDS011;30457;53.590;9.922;2023-04-23T14:08:18;4.43;;;2.60;;
44728;SDS011;30457;53.590;9.922;2023-04-23T14:12:43;4.93;;;2.00;;
44728;SDS011;30457;53.590;9.922;2023-04-23T14:17:10;1.90;;;1.70;;
44728;SDS011;30457;53.590;9.922;2023-04-23T14:21:36;2.10;;;1.90;;
44728;SDS011;30457;53.590;9.922;2023-04-23T14:26:02;3.35;;;1.80;;
44728;SDS011;30457;53.590;9.922;2023-04-23T14:30:29;5.00;;;2.72;;
44728;SDS011;30457;53.590;9.922;2023-04-23T14:34:55;3.80;;;2.60;;
44728;SDS011;30457;53.590;9.922;2023-04-23T14:39:21;5.25;;;2.35;;
44728;SDS011;30457;53.590;9.922;2023-04-23T14:43:48;3.83;;;2.40;;
44728;SDS011;30457;53.590;9.922;2023-04-23T14:48:13;3.90;;;2.50;;
44728;SDS011;30457;53.590;9.922;2023-04-23T14:52:39;3.20;;;2.70;;
44728;SDS011;30457;53.590;9.922;2023-04-23T14:57:05;3.85;;;2.58;;
44728;SDS011;30457;53.590;9.922;2023-04-23T15:01:30;2.80;;;2.10;;
44728;SDS011;30457;53.590;9.922;2023-04-23T15:05:56;2.25;;;2.05;;
44728;SDS011;30457;53.590;9.922;2023-04-23T15:10:21;2.38;;;1.90;;
44728;SDS011;30457;53.590;9.922;2023-04-23T15:14:47;2.95;;;1.98;;
44728;SDS011;30457;53.590;9.922;2023-04-23T15:19:15;3.85;;;1.85;;
44728;SDS011;30457;53.590;9.922;2023-04-23T15:23:44;5.10;;;2.40;;
44728;SDS011;30457;53.590;9.922;2023-04-23T15:28:09;2.33;;;1.90;;
44728;SDS011;30457;53.590;9.922;2023-04-23T15:32:35;2.58;;;1.60;;
44728;SDS011;30457;53.590;9.922;2023-04-23T15:37:00;2.42;;;1.60;;
44728;SDS011;30457;53.590;9.922;2023-04-23T15:41:26;2.67;;;1.38;;
44728;SDS011;30457;53.590;9.922;2023-04-23T15:45:52;2.45;;;1.67;;
44728;SDS011;30457;53.590;9.922;2023-04-23T15:50:19;5.15;;;1.52;;
44728;SDS011;30457;53.590;9.922;2023-04-23T15:54:47;1.73;;;1.27;;
44728;SDS011;30457;53.590;9.922;2023-04-23T15:59:12;2.75;;;1.25;;
44728;SDS011;30457;53.590;9.922;2023-04-23T16:03:38;1.25;;;1.10;;
44728;SDS011;30457;53.590;9.922;2023-04-23T16:08:03;1.02;;;1.00;;
44728;SDS011;30457;53.590;9.922;2023-04-23T16:12:30;1.23;;;1.08;;
44728;SDS011;30457;53.590;9.922;2023-04-23T16:16:56;1.05;;;1.00;;
44728;SDS011;30457;53.590;9.922;2023-04-23T16:21:22;3.20;;;1.17;;
44728;SDS011;30457;53.590;9.922;2023-04-23T16:25:47;1.27;;;1.17;;
44728;SDS011;30457;53.590;9.922;2023-04-23T16:30:13;3.80;;;1.60;;
44728;SDS011;30457;53.590;9.922;2023-04-23T16:34:40;2.42;;;1.70;;
44728;SDS011;30457;53.590;9.922;2023-04-23T16:39:05;4.50;;;2.17;;
44728;SDS011;30457;53.590;9.922;2023-04-23T16:43:31;2.83;;;1.52;;
44728;SDS011;30457;53.590;9.922;2023-04-23T16:47:57;3.65;;;1.60;;
44728;SDS011;30457;53.590;9.922;2023-04-23T16:52:22;1.80;;;1.70;;
44728;SDS011;30457;53.590;9.922;2023-04-23T16:56:48;2.00;;;1.60;;
44728;SDS011;30457;53.590;9.922;2023-04-23T17:01:14;2.75;;;1.42;;
44728;SDS011;30457;53.590;9.922;2023-04-23T17:05:41;1.90;;;1.35;;
44728;SDS011;30457;53.590;9.922;2023-04-23T17:10:08;3.55;;;1.85;;
44728;SDS011;30457;53.590;9.922;2023-04-23T17:14:34;2.40;;;2.00;;
44728;SDS011;30457;53.590;9.922;2023-04-23T17:18:59;2.67;;;2.45;;
44728;SDS011;30457;53.590;9.922;2023-04-23T17:23:25;2.75;;;2.25;;
44728;SDS011;30457;53.590;9.922;2023-04-23T17:27:50;7.43;;;2.72;;
44728;SDS011;30457;53.590;9.922;2023-04-23T17:32:16;3.85;;;2.42;;
44728;SDS011;30457;53.590;9.922;2023-04-23T17:36:42;3.60;;;2.80;;
44728;SDS011;30457;53.590;9.922;2023-04-23T17:41:07;3.45;;;2.75;;
44728;SDS011;30457;53.590;9.922;2023-04-23T17:45:33;3.47;;;2.60;;
44728;SDS011;30457;53.590;9.922;2023-04-23T17:49:58;3.25;;;2.10;;
44728;SDS011;30457;53.590;9.922;2023-04-23T17:54:24;3.80;;;2.00;;
44728;SDS011;30457;53.590;9.922;2023-04-23T17:58:49;3.90;;;2.90;;
44728;SDS011;30457;53.590;9.922;2023-04-23T18:03:15;2.33;;;2.00;;
44728;SDS011;30457;53.590;9.922;2023-04-23T18:07:42;2.90;;;2.22;;
44728;SDS011;30457;53.590;9.922;2023-04-23T18:12:08;2.58;;;2.30;;
44728;SDS011;30457;53.590;9.922;2023-04-23T18:16:34;3.95;;;2.55;;
44728;SDS011;30457;53.590;9.922;2023-04-23T18:20:59;3.92;;;2.50;;
44728;SDS011;30457;53.590;9.922;2023-04-23T18:25:25;6.07;;;2.78;;
44728;SDS011;30457;53.590;9.922;2023-04-23T18:29:52;4.05;;;2.35;;
44728;SDS011;30457;53.590;9.922;2023-04-23T18:34:17;3.17;;;2.30;;
44728;SDS011;30457;53.590;9.922;2023-04-23T18:38:46;3.20;;;2.45;;
44728;SDS011;30457;53.590;9.922;2023-04-23T18:43:13;2.88;;;2.60;;
44728;SDS011;30457;53.590;9.922;2023-04-23T18:47:43;3.30;;;2.45;;
44728;SDS011;30457;53.590;9.922;2023-04-23T18:52:14;5.35;;;2.95;;
44728;SDS011;30457;53.590;9.922;2023-04-23T18:56:40;4.53;;;2.88;;
44728;SDS011;30457;53.590;9.922;2023-04-23T19:01:05;4.20;;;3.10;;
44728;SDS011;30457;53.590;9.922;2023-04-23T19:05:31;5.43;;;3.20;;
44728;SDS011;30457;53.590;9.922;2023-04-23T19:09:56;3.45;;;2.90;;
44728;SDS011;30457;53.590;9.922;2023-04-23T19:14:22;4.32;;;3.10;;
44728;SDS011;30457;53.590;9.922;2023-04-23T19:18:48;10.48;;;3.72;;
44728;SDS011;30457;53.590;9.922;2023-04-23T19:23:13;4.13;;;3.33;;
44728;SDS011;30457;53.590;9.922;2023-04-23T19:27:39;6.60;;;3.60;;
44728;SDS011;30457;53.590;9.922;2023-04-23T19:32:04;6.85;;;3.25;;
44728;SDS011;30457;53.590;9.922;2023-04-23T19:36:30;4.95;;;3.80;;
44728;SDS011;30457;53.590;9.922;2023-04-23T19:40:56;3.70;;;3.10;;
44728;SDS011;30457;53.590;9.922;2023-04-23T19:45:22;3.88;;;3.20;;
44728;SDS011;30457;53.590;9.922;2023-04-23T19:49:47;3.25;;;2.90;;
44728;SDS011;30457;53.590;9.922;2023-04-23T19:54:13;4.43;;;3.10;;
44728;SDS011;30457;53.590;9.922;2023-04-23T19:58:38;3.30;;;2.95;;
44728;SDS011;30457;53.590;9.922;2023-04-23T20:03:04;4.15;;;3.08;;
44728;SDS011;30457;53.590;9.922;2023-04-23T20:07:31;4.50;;;3.08;;
44728;SDS011;30457;53.590;9.922;2023-04-23T20:11:57;3.45;;;2.95;;
44728;SDS011;30457;53.590;9.922;2023-04-23T20:16:22;4.07;;;3.35;;
44728;SDS011;30457;53.590;9.922;2023-04-23T20:20:48;4.50;;;3.38;;
44728;SDS011;30457;53.590;9.922;2023-04-23T20:25:14;5.07;;;3.20;;
44728;SDS011;30457;53.590;9.922;2023-04-23T20:29:39;6.13;;;3.40;;
44728;SDS011;30457;53.590;9.922;2023-04-23T20:34:05;5.43;;;3.70;;
44728;SDS011;30457;53.590;9.922;2023-04-23T20:38:31;4.80;;;3.17;;
44728;SDS011;30457;53.590;9.922;2023-04-23T20:42:57;3.40;;;2.80;;
44728;SDS011;30457;53.590;9.922;2023-04-23T20:47:23;3.22;;;2.72;;
44728;SDS011;30457;53.590;9.922;2023-04-23T20:51:49;3.97;;;3.15;;
44728;SDS011;30457;53.590;9.922;2023-04-23T20:56:15;4.35;;;3.05;;
44728;SDS011;30457;53.590;9.922;2023-04-23T21:00:41;3.38;;;2.88;;
44728;SDS011;30457;53.590;9.922;2023-04-23T21:05:06;3.33;;;2.72;;
44728;SDS011;30457;53.590;9.922;2023-04-23T21:09:34;3.05;;;2.75;;
44728;SDS011;30457;53.590;9.922;2023-04-23T21:14:00;2.58;;;2.38;;
44728;SDS011;30457;53.590;9.922;2023-04-23T21:18:26;3.00;;;2.55;;
44728;SDS011;30457;53.590;9.922;2023-04-23T21:22:51;4.63;;;2.97;;
44728;SDS011;30457;53.590;9.922;2023-04-23T21:27:17;3.53;;;2.80;;
44728;SDS011;30457;53.590;9.922;2023-04-23T21:31:46;2.60;;;2.40;;
44728;SDS011;30457;53.590;9.922;2023-04-23T21:36:14;3.15;;;2.63;;
44728;SDS011;30457;53.590;9.922;2023-04-23T21:40:40;3.03;;;2.70;;
44728;SDS011;30457;53.590;9.922;2023-04-23T21:45:05;2.80;;;2.60;;
44728;SDS011;30457;53.590;9.922;2023-04-23T21:49:31;3.60;;;2.40;;
44728;SDS011;30457;53.590;9.922;2023-04-23T21:53:57;3.17;;;2.72;;
44728;SDS011;30457;53.590;9.922;2023-04-23T21:58:22;2.97;;;2.25;;
44728;SDS011;30457;53.590;9.922;2023-04-23T22:02:48;3.08;;;2.28;;
44728;SDS011;30457;53.590;9.922;2023-04-23T22:07:18;4.15;;;2.53;;
44728;SDS011;30457;53.590;9.922;2023-04-23T22:11:44;4.28;;;2.42;;
44728;SDS011;30457;53.590;9.922;2023-04-23T22:16:10;2.63;;;2.00;;
44728;SDS011;30457;53.590;9.922;2023-04-23T22:20:36;2.58;;;2.28;;
44728;SDS011;30457;53.590;9.922;2023-04-23T22:25:03;3.38;;;2.60;;
44728;SDS011;30457;53.590;9.922;2023-04-23T22:29:32;4.47;;;3.28;;
44728;SDS011;30457;53.590;9.922;2023-04-23T22:33:58;3.42;;;2.75;;
44728;SDS011;30457;53.590;9.922;2023-04-23T22:38:24;3.13;;;2.83;;
44728;SDS011;30457;53.590;9.922;2023-04-23T22:42:50;3.47;;;2.65;;
44728;SDS011;30457;53.590;9.922;2023-04-23T22:47:15;2.40;;;2.20;;
44728;SDS011;30457;53.590;9.922;2023-04-23T22:51:41;2.67;;;2.47;;
44728;SDS011;30457;53.590;9.922;2023-04-23T22:56:07;3.38;;;2.83;;
44728;SDS011;30457;53.590;9.922;2023-04-23T23:00:33;3.42;;;2.70;;
44728;SDS011;30457;53.590;9.922;2023-04-23T23:04:59;6.07;;;3.38;;
44728;SDS011;30457;53.590;9.922;2023-04-23T23:09:24;5.65;;;3.30;;
44728;SDS011;30457;53.590;9.922;2023-04-23T23:13:50;5.85;;;3.50;;
44728;SDS011;30457;53.590;9.922;2023-04-23T23:18:16;4.75;;;3.72;;
44728;SDS011;30457;53.590;9.922;2023-04-23T23:22:42;6.07;;;3.25;;
44728;SDS011;30457;53.590;9.922;2023-04-23T23:27:07;4.53;;;3.42;;
44728;SDS011;30457;53.590;9.922;2023-04-23T23:31:33;5.28;;;3.47;;
44728;SDS011;30457;53.590;9.922;2023-04-23T23:46:35;4.22;;;3.47;;
44728;SDS011;30457;53.590;9.922;2023-04-23T23:51:02;9.15;;;3.47;;
44728;SDS011;30457;53.590;9.922;2023-04-23T23:55:28;3.60;;;3.25;;
44728;SDS011;30457;53.590;9.922;2023-04-23T23:59:53;4.65;;;3.45;;
